Winsum, Netherlands
Current Conditions -  °F | °C
As of 11:55 AM on Friday 19 Dec 2014 (Local Time) from EHGG Reporting Station
Clear Clear  
Wind Chill: 40°   Ceiling: Unl
Heat Index: 46°   Visibility: 6mi
Dew Point: 41°   Wind: 15mph
Humidity: 81%   Direction: 270°W
Pressure: 29.71"   Gusts: NA
Location:  53.33°N, 6.52°E
Report Text: EHGG 191055Z AUTO 27013KT 240V300 9999 NSC 08/05 Q1006 NOSIG
Loading
Personal Weather Stations






























Interactive Weather Map New forecast layout! Learn more

10-Day Weather Forecast

Advertisements
Track Severe Weather on mobile